Time;durP1;ratioP1;P1;durP2;ratioP2;P2;SDS_P1;SDS_P2;PMS_P1;PMS_P2;Temp;Humidity;BMP_temperature;BMP_pressure;BME280_temperature;BME280_humidity;BME280_pressure;Samples;Min_cycle;Max_cycle;Signal;HPM_P1;HPM_P2
2021/08/05 00:07:45;;;;;;;0.73;0.50;;;20.80;99.90;;;;;;20680907;23;20597;-72
2021/08/05 00:17:50;;;;;;;0.20;0.10;;;20.80;99.90;;;;;;20696352;28;20734;-74
2021/08/05 00:27:55;;;;;;;0.20;0.07;;;20.80;99.90;;;;;;20693945;28;20728;-75
2021/08/05 00:37:58;;;;;;;0.20;0.10;;;20.80;99.90;;;;;;20635404;28;20604;-74
2021/08/05 00:48:05;;;;;;;0.23;0.13;;;20.80;99.90;;;;;;20611463;28;20238;-75
2021/08/05 00:58:08;;;;;;;0.20;0.10;;;20.90;99.90;;;;;;20611708;28;20658;-75
2021/08/05 01:08:17;;;;;;;0.33;0.33;;;20.90;99.90;;;;;;20745183;23;20287;-81
2021/08/05 01:18:26;;;;;;;4.93;0.50;;;20.80;99.90;;;;;;20775499;28;20186;-83
2021/08/05 01:28:32;;;;;;;0.20;0.10;;;20.80;99.90;;;;;;20790721;28;20222;-79
2021/08/05 01:38:38;;;;;;;0.27;0.17;;;20.70;99.90;;;;;;20727889;28;20199;-80
2021/08/05 01:48:43;;;;;;;0.20;0.10;;;20.80;99.90;;;;;;20705212;28;20534;-81
2021/08/05 01:58:47;;;;;;;0.83;0.30;;;20.70;99.90;;;;;;20707173;28;20203;-80
2021/08/05 02:08:55;;;;;;;0.20;0.20;;;20.70;99.90;;;;;;20751728;28;20230;-78
2021/08/05 02:19:00;;;;;;;0.20;0.10;;;20.60;99.90;;;;;;20788206;28;20213;-78
2021/08/05 02:29:05;;;;;;;0.30;0.30;;;20.50;99.90;;;;;;20785298;28;20222;-80
2021/08/05 02:39:09;;;;;;;0.30;0.20;;;20.50;99.90;;;;;;20718941;28;20281;-83
2021/08/05 02:49:15;;;;;;;0.50;0.50;;;20.50;99.90;;;;;;20712404;28;20230;-89
2021/08/05 02:59:20;;;;;;;0.20;0.03;;;20.40;99.90;;;;;;20703841;28;20737;-82
2021/08/05 03:09:25;;;;;;;0.20;0.10;;;20.50;99.90;;;;;;20753939;28;20575;-81
2021/08/05 03:19:28;;;;;;;0.60;0.20;;;20.50;99.90;;;;;;20782585;28;20567;-79
2021/08/05 03:29:33;;;;;;;0.20;0.20;;;20.60;99.90;;;;;;20781235;28;20919;-79
2021/08/05 03:39:37;;;;;;;0.20;0.13;;;20.70;99.90;;;;;;20709303;28;20199;-78
2021/08/05 03:49:42;;;;;;;0.20;0.00;;;20.90;99.90;;;;;;20726112;28;20642;-78
2021/08/05 03:59:45;;;;;;;0.43;0.30;;;21.00;99.90;;;;;;20697033;28;20345;-77
2021/08/05 04:09:50;;;;;;;0.97;0.50;;;20.90;99.90;;;;;;20703076;28;20226;-79
2021/08/05 04:19:54;;;;;;;0.20;0.10;;;20.90;99.90;;;;;;20701314;28;20195;-76
2021/08/05 04:29:59;;;;;;;2.40;0.40;;;20.90;99.90;;;;;;20697699;28;20334;-78
2021/08/05 04:40:04;;;;;;;3.97;0.77;;;20.90;99.90;;;;;;20675833;28;20563;-75
2021/08/05 04:50:10;;;;;;;0.57;0.50;;;21.00;99.90;;;;;;20680212;28;20284;-74
2021/08/05 05:00:14;;;;;;;0.20;0.10;;;20.90;99.90;;;;;;20702283;28;20234;-74
2021/08/05 05:10:21;;;;;;;0.30;0.23;;;20.90;99.90;;;;;;20769507;28;20284;-75
2021/08/05 05:20:25;;;;;;;0.87;0.40;;;20.90;99.90;;;;;;20793517;28;20244;-77
2021/08/05 05:30:30;;;;;;;0.27;0.20;;;20.90;99.90;;;;;;20790778;28;20230;-75
2021/08/05 05:40:34;;;;;;;0.30;0.20;;;21.20;99.90;;;;;;20711584;28;20214;-76
2021/08/05 05:50:39;;;;;;;0.20;0.20;;;21.50;99.90;;;;;;20708284;28;20450;-79
2021/08/05 06:00:43;;;;;;;0.73;0.60;;;21.90;99.90;;;;;;20708290;28;20229;-80
2021/08/05 06:10:49;;;;;;;0.40;0.30;;;22.30;99.90;;;;;;20769045;28;20226;-82
2021/08/05 06:20:52;;;;;;;0.20;0.10;;;22.60;99.90;;;;;;20772599;28;20221;-76
2021/08/05 06:30:57;;;;;;;0.43;0.43;;;22.90;99.90;;;;;;20785897;28;20245;-69
2021/08/05 06:41:01;;;;;;;0.20;0.00;;;23.40;99.90;;;;;;20703017;28;20243;-77
2021/08/05 06:51:08;;;;;;;0.40;0.40;;;23.50;99.90;;;;;;20700667;28;20226;-79
2021/08/05 07:01:12;;;;;;;0.20;0.00;;;23.80;99.90;;;;;;20703346;28;20226;-73
2021/08/05 07:11:18;;;;;;;0.45;0.13;;;24.10;99.90;;;;;;20721479;23;20250;-77
2021/08/05 07:21:21;;;;;;;0.20;0.15;;;24.30;99.90;;;;;;20702975;28;20209;-78
2021/08/05 07:31:27;;;;;;;1.38;0.52;;;24.50;99.90;;;;;;20708646;28;20241;-79
2021/08/05 07:41:30;;;;;;;3.28;1.15;;;24.70;99.90;;;;;;20708446;28;20665;-89
2021/08/05 07:51:39;;;;;;;1.30;0.45;;;24.90;99.90;;;;;;20690597;28;20334;-85
2021/08/05 08:01:46;;;;;;;3.03;0.63;;;25.10;99.90;;;;;;20680453;28;20198;-76
2021/08/05 08:11:52;;;;;;;2.65;1.17;;;25.20;99.90;;;;;;20704879;28;20235;-83
2021/08/05 08:22:00;;;;;;;0.63;0.55;;;25.30;99.90;;;;;;20655701;28;20195;-81
2021/08/05 08:32:09;;;;;;;0.20;0.13;;;25.60;99.90;;;;;;20727017;28;20592;-82
2021/08/05 08:42:16;;;;;;;0.65;0.65;;;25.50;99.90;;;;;;20700874;28;20201;-76
2021/08/05 08:52:34;;;;;;;0.98;0.55;;;25.80;99.90;;;;;;20708145;23;20242;-81
2021/08/05 09:03:08;;;;;;;0.60;0.38;;;25.80;99.90;;;;;;20691751;28;20237;-81
2021/08/05 09:13:17;;;;;;;0.20;0.10;;;26.00;99.90;;;;;;20691931;28;20672;-78
2021/08/05 09:23:30;;;;;;;0.68;0.30;;;26.00;99.90;;;;;;20698497;28;20631;-81
2021/08/05 09:33:35;;;;;;;1.25;0.73;;;26.30;99.90;;;;;;20625148;23;20710;-68
2021/08/05 09:43:39;;;;;;;1.65;0.60;;;26.60;99.90;;;;;;20617838;28;20293;-83
2021/08/05 09:54:05;;;;;;;1.25;0.55;;;26.50;99.90;;;;;;20593706;28;20685;-83
2021/08/05 10:14:35;;;;;;;0.55;0.55;;;27.40;99.90;;;;;;20306222;29;20241;-80
2021/08/05 10:25:01;;;;;;;0.50;0.30;;;27.50;99.90;;;;;;20304982;29;20197;-82
2021/08/05 10:35:21;;;;;;;5.43;1.95;;;27.50;99.90;;;;;;20367532;29;20311;-77
2021/08/05 10:46:02;;;;;;;0.43;0.32;;;28.40;99.90;;;;;;20399620;29;20316;-80
2021/08/05 10:56:30;;;;;;;1.23;0.82;;;28.60;99.90;;;;;;20118304;29;20286;-74
2021/08/05 11:06:47;;;;;;;0.30;0.30;;;28.30;99.90;;;;;;20140424;29;20518;-77
2021/08/05 11:28:30;;;;;;;1.48;1.33;;;29.60;99.90;;;;;;20504708;23;20235;-82
2021/08/05 11:38:35;;;;;;;2.40;1.33;;;30.40;99.90;;;;;;20699639;28;20670;-85
2021/08/05 11:48:40;;;;;;;0.70;0.70;;;30.80;99.90;;;;;;20703998;28;20238;-79
2021/08/05 11:58:45;;;;;;;0.30;0.30;;;31.20;99.90;;;;;;20686840;28;20278;-78
2021/08/05 12:08:49;;;;;;;1.50;1.40;;;30.30;99.90;;;;;;20738498;28;20226;-79
2021/08/05 12:18:55;;;;;;;2.10;1.05;;;30.50;99.90;;;;;;20761954;28;20540;-80
2021/08/05 12:28:59;;;;;;;3.47;1.13;;;32.00;99.90;;;;;;20777741;28;20248;-76
2021/08/05 12:39:07;;;;;;;0.88;0.88;;;32.60;99.90;;;;;;20758689;28;20202;-77
2021/08/05 12:49:12;;;;;;;1.50;0.73;;;32.80;99.90;;;;;;20688264;28;20226;-76
2021/08/05 12:59:40;;;;;;;3.50;0.60;;;32.90;99.90;;;;;;20716784;28;20780;-76
2021/08/05 13:09:56;;;;;;;0.85;0.65;;;33.30;99.90;;;;;;20743926;28;20218;-79
2021/08/05 13:20:24;;;;;;;1.42;0.77;;;33.30;99.90;;;;;;20706950;23;20312;-80
2021/08/05 13:30:31;;;;;;;2.10;1.38;;;33.10;99.90;;;;;;20694966;28;20226;-76
2021/08/05 13:41:15;;;;;;;1.17;0.90;;;33.40;99.90;;;;;;20701084;23;20238;-83
2021/08/05 14:02:40;;;;;;;2.00;1.00;;;33.90;99.90;;;;;;20542609;28;20207;-84
2021/08/05 14:13:24;;;;;;;5.20;1.13;;;34.60;99.90;;;;;;20552222;23;20262;-83
2021/08/05 14:23:32;;;;;;;2.53;1.30;;;34.80;99.90;;;;;;20613699;23;20231;-78
2021/08/05 14:33:50;;;;;;;1.02;0.57;;;33.60;99.90;;;;;;20707756;28;20225;-82
2021/08/05 14:44:00;;;;;;;2.22;1.13;;;33.70;99.90;;;;;;20688742;28;20309;-79
2021/08/05 15:04:54;;;;;;;3.05;1.45;;;33.80;99.90;;;;;;20770542;23;20256;-78
2021/08/05 15:15:19;;;;;;;1.67;1.20;;;32.90;99.90;;;;;;20617895;23;21042;-84
2021/08/05 15:36:35;;;;;;;1.00;0.98;;;33.70;99.90;;;;;;20502059;23;20232;-83
2021/08/05 15:46:39;;;;;;;5.43;1.30;;;33.10;99.90;;;;;;20728435;23;20242;-78
2021/08/05 16:07:50;;;;;;;1.17;1.08;;;33.80;99.90;;;;;;20683838;28;20692;-76
2021/08/05 16:18:37;;;;;;;1.65;1.17;;;32.90;99.90;;;;;;20669296;28;20197;-76
2021/08/05 16:29:05;;;;;;;4.75;0.65;;;30.80;99.90;;;;;;20676767;28;20334;-76
2021/08/05 16:39:17;;;;;;;3.17;1.27;;;30.10;99.90;;;;;;20993500;23;20663;-79
2021/08/05 17:11:17;;;;;;;1.63;1.45;;;29.10;99.90;;;;;;20639669;28;20750;-77
2021/08/05 17:32:19;;;;;;;2.38;1.50;;;31.00;99.90;;;;;;20245826;29;20584;-78
2021/08/05 17:42:56;;;;;;;1.65;1.55;;;31.10;99.90;;;;;;20200302;29;20234;-79
2021/08/05 17:53:02;;;;;;;11.73;0.82;;;31.70;99.90;;;;;;20232236;29;20295;-79
2021/08/05 18:03:05;;;;;;;0.65;0.43;;;31.10;99.90;;;;;;20214067;29;20211;-75
2021/08/05 18:13:12;;;;;;;9.32;1.73;;;29.60;99.90;;;;;;20305263;29;20609;-80
2021/08/05 18:23:16;;;;;;;4.55;3.22;;;28.20;99.90;;;;;;20303833;29;20234;-76
2021/08/05 18:33:21;;;;;;;0.98;0.85;;;27.90;99.90;;;;;;20287629;29;20227;-77
2021/08/05 18:43:25;;;;;;;1.38;0.93;;;27.90;99.90;;;;;;20211182;29;20667;-80
2021/08/05 18:53:30;;;;;;;0.60;0.60;;;27.20;99.90;;;;;;20206675;29;20245;-77
2021/08/05 19:03:34;;;;;;;0.70;0.63;;;27.20;99.90;;;;;;20227725;29;20558;-78
2021/08/05 19:13:40;;;;;;;1.15;0.90;;;27.20;99.90;;;;;;20300576;29;20226;-81
2021/08/05 19:23:44;;;;;;;0.80;0.70;;;27.00;99.90;;;;;;20301225;29;20229;-82
2021/08/05 19:33:49;;;;;;;2.05;1.50;;;26.90;99.90;;;;;;20260841;29;20231;-82
2021/08/05 19:43:52;;;;;;;1.65;0.88;;;26.70;99.90;;;;;;20219931;29;20279;-78
2021/08/05 19:53:57;;;;;;;1.35;1.00;;;26.50;99.90;;;;;;20204305;29;21099;-77
2021/08/05 20:04:02;;;;;;;7.78;1.05;;;26.50;99.90;;;;;;20240071;29;20285;-75
2021/08/05 20:14:08;;;;;;;1.20;1.08;;;26.30;99.90;;;;;;20297361;29;20262;-77
2021/08/05 20:24:11;;;;;;;2.60;1.67;;;26.40;99.90;;;;;;20294906;29;20690;-73
2021/08/05 20:34:17;;;;;;;0.63;0.63;;;26.30;99.90;;;;;;20273752;29;20634;-76
2021/08/05 20:44:21;;;;;;;1.27;0.82;;;26.20;99.90;;;;;;20217768;29;20218;-76
2021/08/05 20:54:27;;;;;;;1.75;0.73;;;26.30;99.90;;;;;;20216919;29;20226;-77
2021/08/05 21:04:30;;;;;;;1.35;0.75;;;26.20;99.90;;;;;;20226794;29;20262;-78
2021/08/05 21:14:36;;;;;;;1.65;1.25;;;26.30;99.90;;;;;;20294281;29;20244;-77
2021/08/05 21:24:39;;;;;;;0.73;0.50;;;26.20;99.90;;;;;;20294172;29;20230;-79
2021/08/05 21:34:45;;;;;;;0.75;0.57;;;26.20;99.90;;;;;;20233074;29;20686;-78
2021/08/05 21:44:48;;;;;;;2.05;0.50;;;26.20;99.90;;;;;;20253783;29;20199;-77
2021/08/05 21:54:54;;;;;;;1.00;0.88;;;26.10;99.90;;;;;;20253539;29;20226;-75
2021/08/05 22:04:57;;;;;;;3.00;1.10;;;26.00;99.90;;;;;;20253015;29;20203;-76
2021/08/05 22:15:04;;;;;;;1.00;0.90;;;25.90;99.90;;;;;;20251973;29;20234;-78
2021/08/05 22:25:08;;;;;;;1.35;1.13;;;25.70;99.90;;;;;;20249348;29;20234;-76
2021/08/05 22:35:13;;;;;;;4.13;0.98;;;25.60;99.90;;;;;;20247640;29;20586;-76
2021/08/05 22:45:17;;;;;;;0.90;0.65;;;25.30;99.90;;;;;;20242783;29;20263;-76
2021/08/05 22:55:22;;;;;;;0.50;0.50;;;25.10;99.90;;;;;;20227120;29;20580;-75
2021/08/05 23:05:26;;;;;;;2.60;0.63;;;24.90;99.90;;;;;;20243329;29;20202;-75
2021/08/05 23:15:31;;;;;;;0.38;0.38;;;24.80;99.90;;;;;;20231334;29;20229;-77
2021/08/05 23:25:35;;;;;;;1.25;0.32;;;24.70;99.90;;;;;;20299643;29;20282;-79
2021/08/05 23:35:40;;;;;;;0.45;0.38;;;24.60;99.90;;;;;;20263307;29;20234;-76
2021/08/05 23:45:44;;;;;;;0.30;0.10;;;24.60;99.90;;;;;;20235966;29;20670;-77
2021/08/05 23:55:49;;;;;;;0.70;0.32;;;24.50;99.90;;;;;;20227891;29;20219;-75
